createdAt,value
2022-10-05T00:01:29.626Z,86.34
2022-10-05T00:04:10.904Z,86.27
2022-10-05T00:06:37.578Z,86.22
2022-10-05T00:09:10.818Z,86.39
2022-10-05T00:11:37.451Z,86.26
2022-10-05T00:14:33.525Z,86.31
2022-10-05T00:17:00.840Z,86.26
2022-10-05T00:19:33.127Z,86.16
2022-10-05T00:22:00.396Z,86.03
2022-10-05T00:24:26.893Z,86.15
2022-10-05T00:26:57.794Z,85.97
2022-10-05T00:29:24.852Z,86.03
2022-10-05T00:31:51.652Z,85.97
2022-10-05T00:34:18.617Z,86.19
2022-10-05T00:36:45.634Z,86.24
2022-10-05T00:39:12.407Z,86.17
2022-10-05T00:41:46.801Z,86.05
2022-10-05T00:44:32.850Z,85.93
2022-10-05T00:47:18.533Z,86.18
2022-10-05T00:49:50.932Z,86.01
2022-10-05T00:52:44.094Z,85.89
2022-10-05T00:55:18.735Z,86.18
2022-10-05T00:58:01.580Z,86.27
2022-10-05T01:00:28.278Z,86.46
2022-10-05T01:03:01.468Z,86.36
2022-10-05T01:05:35.066Z,86.26
2022-10-05T01:08:18.266Z,86.28
2022-10-05T01:10:47.554Z,86.28
2022-10-05T01:13:17.131Z,86.32
2022-10-05T01:15:46.495Z,86.35
2022-10-05T01:18:39.139Z,86.41
2022-10-05T01:21:08.629Z,86.40
2022-10-05T01:23:50.309Z,86.30
2022-10-05T01:26:56.157Z,86.57
2022-10-05T01:29:33.402Z,86.47
2022-10-05T01:32:20.253Z,86.46
2022-10-05T01:34:58.875Z,86.55
2022-10-05T01:37:30.470Z,86.44
2022-10-05T01:39:56.968Z,86.47
2022-10-05T01:42:32.532Z,86.41
2022-10-05T01:45:31.984Z,86.50
2022-10-05T01:48:07.666Z,86.49
2022-10-05T01:50:48.213Z,86.61
2022-10-05T01:53:26.644Z,86.52
2022-10-05T01:56:06.002Z,86.58
2022-10-05T01:58:48.391Z,86.57
2022-10-05T02:01:25.374Z,86.63
2022-10-05T02:04:11.034Z,86.60
2022-10-05T02:06:41.347Z,86.62
2022-10-05T02:09:28.523Z,86.63
2022-10-05T02:12:04.734Z,86.65
2022-10-05T02:14:45.747Z,86.64
2022-10-05T02:17:17.263Z,86.62
2022-10-05T02:19:49.906Z,86.63
2022-10-05T02:22:22.043Z,86.65
2022-10-05T02:24:51.955Z,86.62
2022-10-05T02:27:23.130Z,86.61
2022-10-05T02:29:50.883Z,86.61
2022-10-05T02:32:21.215Z,86.59
2022-10-05T02:34:48.233Z,86.58
2022-10-05T02:37:34.319Z,86.55
2022-10-05T02:40:20.223Z,86.59
2022-10-05T02:42:55.304Z,86.56
2022-10-05T02:45:31.840Z,86.53
2022-10-05T02:48:15.098Z,86.53
2022-10-05T02:50:45.193Z,86.47
2022-10-05T02:53:47.231Z,86.48
2022-10-05T02:56:20.470Z,86.48
2022-10-05T02:58:58.799Z,86.45
2022-10-05T03:01:31.702Z,86.43
2022-10-05T03:04:17.051Z,86.45
2022-10-05T03:06:58.744Z,86.47
2022-10-05T03:09:28.725Z,86.47
2022-10-05T03:12:14.712Z,86.46
2022-10-05T03:14:59.500Z,86.43
2022-10-05T03:17:30.787Z,86.41
2022-10-05T03:20:16.075Z,86.34
2022-10-05T03:22:53.237Z,86.39
2022-10-05T03:25:36.915Z,86.35
2022-10-05T03:28:06.656Z,86.29
2022-10-05T03:30:39.769Z,86.29
2022-10-05T03:33:14.792Z,86.32
2022-10-05T03:35:49.928Z,86.34
2022-10-05T03:38:17.393Z,86.34
2022-10-05T03:40:50.541Z,86.31
2022-10-05T03:43:34.976Z,86.33
2022-10-05T03:46:08.776Z,86.28
2022-10-05T03:48:40.226Z,86.28
2022-10-05T03:51:16.202Z,86.27
2022-10-05T03:53:47.814Z,86.24
2022-10-05T03:56:16.400Z,86.22
2022-10-05T03:58:53.495Z,86.20
2022-10-05T04:01:23.544Z,86.20
2022-10-05T04:03:57.494Z,86.20
2022-10-05T04:06:26.435Z,86.18
2022-10-05T04:09:05.549Z,86.18
2022-10-05T04:11:35.493Z,86.17
2022-10-05T04:14:11.556Z,86.20
2022-10-05T04:16:46.241Z,86.20
2022-10-05T04:19:34.245Z,86.21
2022-10-05T04:22:07.744Z,86.24
2022-10-05T04:24:43.224Z,86.22
2022-10-05T04:27:16.542Z,86.22
2022-10-05T04:29:58.404Z,86.22
2022-10-05T04:32:45.220Z,86.19
2022-10-05T04:35:15.636Z,86.16
2022-10-05T04:38:01.132Z,86.20
2022-10-05T04:40:28.594Z,86.19
2022-10-05T04:43:12.619Z,86.15
2022-10-05T04:45:48.906Z,86.13
2022-10-05T04:48:18.182Z,86.18
2022-10-05T04:50:57.401Z,86.12
2022-10-05T04:53:23.988Z,86.15
2022-10-05T04:55:56.494Z,86.18
2022-10-05T04:58:42.701Z,86.16
2022-10-05T05:01:10.479Z,86.21
2022-10-05T05:03:45.628Z,86.17
2022-10-05T05:06:19.550Z,86.17
2022-10-05T05:09:14.299Z,86.15
2022-10-05T05:12:01.146Z,86.15
2022-10-05T05:14:46.451Z,86.11
2022-10-05T05:17:32.480Z,86.07
2022-10-05T05:20:19.701Z,86.05
2022-10-05T05:23:05.517Z,86.06
2022-10-05T05:25:48.911Z,86.08
2022-10-05T05:28:30.179Z,86.08
2022-10-05T05:31:05.562Z,86.09
2022-10-05T05:33:40.814Z,86.06
2022-10-05T05:36:22.879Z,86.05
2022-10-05T05:38:53.534Z,86.03
2022-10-05T05:41:39.453Z,86.01
2022-10-05T05:44:22.119Z,85.98
2022-10-05T05:47:24.613Z,85.94
2022-10-05T05:50:07.315Z,85.89
2022-10-05T05:52:47.024Z,85.85
2022-10-05T05:55:13.929Z,85.75
2022-10-05T05:57:48.063Z,85.68
2022-10-05T06:00:20.827Z,85.68
2022-10-05T06:02:54.484Z,85.64
2022-10-05T06:05:25.122Z,85.58
2022-10-05T06:07:53.708Z,85.70
2022-10-05T06:10:26.501Z,85.54
2022-10-05T06:12:59.647Z,85.46
2022-10-05T06:15:37.776Z,85.40
2022-10-05T06:18:10.767Z,85.38
2022-10-05T06:20:42.635Z,85.32
2022-10-05T06:23:13.273Z,85.19
2022-10-05T06:25:58.756Z,85.27
2022-10-05T06:28:27.358Z,85.25
2022-10-05T06:30:54.266Z,85.06
2022-10-05T06:33:24.023Z,84.91
2022-10-05T06:36:08.310Z,84.91
2022-10-05T06:38:35.085Z,84.94
2022-10-05T06:41:08.087Z,84.89
2022-10-05T06:43:35.426Z,85.02
2022-10-05T06:46:07.184Z,84.87
2022-10-05T06:48:34.388Z,84.94
2022-10-05T06:51:07.359Z,84.78
2022-10-05T06:53:34.585Z,84.67
2022-10-05T06:56:21.681Z,84.57
2022-10-05T06:58:48.913Z,84.43
2022-10-05T07:01:23.878Z,84.49
2022-10-05T07:04:08.936Z,84.41
2022-10-05T07:06:54.370Z,84.38
2022-10-05T07:09:55.633Z,84.15
2022-10-05T07:12:40.584Z,83.81
2022-10-05T07:15:14.877Z,82.92
2022-10-05T07:18:10.117Z,82.87
2022-10-05T07:20:58.458Z,83.03
2022-10-05T07:23:27.920Z,83.05
2022-10-05T07:26:14.959Z,82.97
2022-10-05T07:28:48.092Z,82.55
2022-10-05T07:31:39.909Z,82.64
2022-10-05T07:34:06.654Z,82.83
2022-10-05T07:36:58.961Z,82.77
2022-10-05T07:40:00.126Z,82.26
2022-10-05T07:42:51.854Z,82.00
2022-10-05T07:45:22.457Z,82.18
2022-10-05T07:48:01.957Z,81.86
2022-10-05T07:50:38.775Z,81.57
2022-10-05T07:53:11.021Z,81.68
2022-10-05T07:55:41.986Z,81.38
2022-10-05T07:58:18.774Z,81.59
2022-10-05T08:00:48.618Z,81.01
2022-10-05T08:03:23.475Z,80.60
2022-10-05T08:05:50.538Z,80.47
2022-10-05T08:08:25.022Z,80.77
2022-10-05T08:10:56.974Z,80.62
2022-10-05T08:13:28.461Z,79.78
2022-10-05T08:15:58.006Z,80.42
2022-10-05T08:18:37.581Z,79.86
2022-10-05T08:21:06.330Z,80.12
2022-10-05T08:23:39.275Z,79.39
2022-10-05T08:26:05.847Z,80.21
2022-10-05T08:28:32.405Z,79.68
2022-10-05T08:31:08.816Z,79.57
2022-10-05T08:33:46.553Z,79.08
2022-10-05T08:36:14.718Z,79.14
2022-10-05T08:38:42.084Z,78.72
2022-10-05T08:41:23.696Z,78.26
2022-10-05T08:43:50.667Z,78.41
2022-10-05T08:46:37.646Z,79.05
2022-10-05T08:49:34.249Z,79.04
2022-10-05T08:52:20.898Z,78.43
2022-10-05T08:55:06.663Z,78.29
2022-10-05T08:57:51.539Z,77.54
2022-10-05T09:00:25.198Z,78.01
2022-10-05T09:02:51.767Z,77.55
2022-10-05T09:05:51.150Z,77.21
2022-10-05T09:08:30.988Z,77.04
2022-10-05T09:11:19.691Z,77.03
2022-10-05T09:13:49.521Z,76.72
2022-10-05T09:16:28.850Z,76.77
2022-10-05T09:19:14.629Z,76.62
2022-10-05T09:21:57.395Z,76.03
2022-10-05T09:24:23.966Z,75.91
2022-10-05T09:27:00.069Z,75.68
2022-10-05T09:29:45.399Z,76.20
2022-10-05T09:32:31.023Z,75.56
2022-10-05T09:35:26.674Z,75.56
2022-10-05T09:37:59.907Z,75.35
2022-10-05T09:40:42.037Z,74.22
2022-10-05T09:43:15.377Z,74.27
2022-10-05T09:46:01.352Z,73.70
2022-10-05T09:48:28.242Z,74.07
2022-10-05T09:51:07.242Z,74.47
2022-10-05T09:53:53.070Z,74.71
2022-10-05T09:56:22.820Z,74.44
2022-10-05T09:58:55.782Z,74.23
2022-10-05T10:01:35.231Z,73.99
2022-10-05T10:04:12.292Z,72.92
2022-10-05T10:06:59.518Z,73.28
2022-10-05T10:09:37.902Z,73.64
2022-10-05T10:12:11.495Z,73.86
2022-10-05T10:14:49.543Z,72.91
2022-10-05T10:17:30.639Z,73.31
2022-10-05T10:20:15.898Z,72.88
2022-10-05T10:22:51.958Z,73.00
2022-10-05T10:25:34.795Z,72.96
2022-10-05T10:28:20.130Z,72.54
2022-10-05T10:31:11.956Z,72.18
2022-10-05T10:33:41.682Z,72.44
2022-10-05T10:36:08.490Z,71.79
2022-10-05T10:38:53.211Z,72.52
2022-10-05T10:41:34.100Z,71.75
2022-10-05T10:44:16.106Z,72.48
2022-10-05T10:47:21.932Z,72.57
2022-10-05T10:50:07.453Z,72.48
2022-10-05T10:52:46.422Z,72.18
2022-10-05T10:55:31.938Z,71.96
2022-10-05T10:57:58.896Z,71.59
2022-10-05T11:00:44.582Z,71.50
2022-10-05T11:03:20.378Z,71.23
2022-10-05T11:06:07.608Z,71.85
2022-10-05T11:08:34.558Z,71.16
2022-10-05T11:11:19.982Z,71.62
2022-10-05T11:13:47.644Z,71.47
2022-10-05T11:16:19.629Z,71.22
2022-10-05T11:19:06.941Z,71.68
2022-10-05T11:21:52.344Z,72.01
2022-10-05T11:24:38.727Z,71.66
2022-10-05T11:27:14.932Z,71.33
2022-10-05T11:29:56.008Z,70.97
2022-10-05T11:32:25.660Z,71.31
2022-10-05T11:34:55.791Z,71.81
2022-10-05T11:37:40.941Z,71.10
2022-10-05T11:40:26.958Z,70.81
2022-10-05T11:42:59.620Z,71.64
2022-10-05T11:45:40.039Z,71.09
2022-10-05T11:48:09.797Z,71.10
2022-10-05T11:50:48.787Z,70.59
2022-10-05T11:53:22.251Z,70.93
2022-10-05T11:56:01.047Z,70.90
2022-10-05T11:58:29.780Z,70.93
2022-10-05T12:01:00.775Z,71.76
2022-10-05T12:03:36.318Z,71.49
2022-10-05T12:06:15.358Z,71.22
2022-10-05T12:08:56.333Z,71.15
2022-10-05T12:11:36.006Z,71.48
2022-10-05T12:14:12.083Z,71.15
2022-10-05T12:16:46.821Z,70.46
2022-10-05T12:19:19.630Z,70.28
2022-10-05T12:21:53.735Z,70.24
2022-10-05T12:24:28.117Z,71.28
2022-10-05T12:27:01.439Z,71.19
2022-10-05T12:29:44.173Z,71.37
2022-10-05T12:32:16.219Z,70.75
2022-10-05T12:35:01.427Z,71.08
2022-10-05T12:37:28.953Z,70.69
2022-10-05T12:40:18.696Z,70.66
2022-10-05T12:43:03.400Z,70.27
2022-10-05T12:45:49.321Z,71.18
2022-10-05T12:48:23.998Z,71.13
2022-10-05T12:50:55.069Z,71.05
2022-10-05T12:53:34.525Z,70.28
2022-10-05T12:56:04.255Z,70.69
2022-10-05T12:58:42.796Z,71.24
2022-10-05T13:01:18.766Z,70.67
2022-10-05T13:03:53.194Z,71.08
2022-10-05T13:06:19.984Z,70.68
2022-10-05T13:08:56.007Z,71.12
2022-10-05T13:11:28.615Z,70.23
2022-10-05T13:14:05.240Z,70.02
2022-10-05T13:16:38.552Z,70.54
2022-10-05T13:19:11.520Z,69.87
2022-10-05T13:21:38.687Z,70.60
2022-10-05T13:24:20.795Z,69.82
2022-10-05T13:26:58.233Z,70.44
2022-10-05T13:29:34.680Z,69.86
2022-10-05T13:32:07.481Z,70.78
2022-10-05T13:34:54.417Z,70.04
2022-10-05T13:38:01.661Z,70.22
2022-10-05T13:40:33.929Z,70.73
2022-10-05T13:43:14.979Z,70.65
2022-10-05T13:45:55.674Z,70.99
2022-10-05T13:48:42.995Z,70.63
2022-10-05T13:51:18.162Z,70.47
2022-10-05T13:53:49.299Z,70.68
2022-10-05T13:56:24.314Z,70.58
2022-10-05T13:58:57.925Z,70.76
2022-10-05T14:01:28.242Z,70.69
2022-10-05T14:04:13.921Z,70.96
2022-10-05T14:06:40.503Z,70.35
2022-10-05T14:09:12.634Z,70.65
2022-10-05T14:11:47.264Z,70.96
2022-10-05T14:14:16.350Z,70.83
2022-10-05T14:16:48.233Z,70.38
2022-10-05T14:19:22.508Z,70.33
2022-10-05T14:21:53.708Z,70.72
2022-10-05T14:24:43.966Z,70.47
2022-10-05T14:27:20.207Z,70.57
2022-10-05T14:29:52.882Z,70.47
2022-10-05T14:32:22.612Z,70.59
2022-10-05T14:35:08.886Z,70.63
2022-10-05T14:37:49.386Z,70.43
2022-10-05T14:40:25.643Z,71.05
2022-10-05T14:42:52.323Z,70.10
2022-10-05T14:45:29.864Z,70.67
2022-10-05T14:48:00.269Z,70.71
2022-10-05T14:50:30.700Z,70.49
2022-10-05T14:53:04.287Z,70.29
2022-10-05T14:55:41.574Z,70.64
2022-10-05T14:58:26.560Z,70.64
2022-10-05T15:01:02.354Z,69.98
2022-10-05T15:03:29.305Z,70.04
2022-10-05T15:05:59.108Z,70.27
2022-10-05T15:08:31.675Z,70.28
2022-10-05T15:11:07.796Z,70.13
2022-10-05T15:13:37.537Z,69.94
2022-10-05T15:16:13.729Z,70.28
2022-10-05T15:18:48.805Z,70.14
2022-10-05T15:21:15.670Z,70.07
2022-10-05T15:23:47.257Z,70.22
2022-10-05T15:26:25.738Z,70.20
2022-10-05T15:28:54.378Z,70.13
2022-10-05T15:31:21.020Z,70.15
2022-10-05T15:33:59.068Z,71.16
2022-10-05T15:36:35.530Z,70.84
2022-10-05T15:39:20.887Z,70.70
2022-10-05T15:42:05.289Z,70.73
2022-10-05T15:44:34.049Z,70.62
2022-10-05T15:47:09.167Z,70.54
2022-10-05T15:49:41.908Z,70.64
2022-10-05T15:52:17.651Z,70.59
2022-10-05T15:55:08.067Z,70.55
2022-10-05T15:57:59.629Z,70.64
2022-10-05T16:00:27.311Z,70.60
2022-10-05T16:03:13.986Z,70.69
2022-10-05T16:06:04.210Z,70.78
2022-10-05T16:08:51.501Z,70.81
2022-10-05T16:11:36.732Z,70.86
2022-10-05T16:14:18.912Z,70.98
2022-10-05T16:16:51.396Z,71.05
2022-10-05T16:19:21.390Z,71.10
2022-10-05T16:22:00.604Z,71.18
2022-10-05T16:24:47.349Z,71.23
2022-10-05T16:27:20.777Z,71.31
2022-10-05T16:29:59.896Z,71.35
2022-10-05T16:32:33.743Z,71.43
2022-10-05T16:35:21.540Z,71.50
2022-10-05T16:37:58.922Z,71.57
2022-10-05T16:40:45.220Z,71.63
2022-10-05T16:43:35.266Z,71.69
2022-10-05T16:46:02.195Z,71.79
2022-10-05T16:48:30.923Z,71.89
2022-10-05T16:50:57.403Z,71.97
2022-10-05T16:53:24.247Z,72.03
2022-10-05T16:55:56.017Z,72.09
2022-10-05T16:58:27.395Z,72.14
2022-10-05T17:01:09.962Z,72.25
2022-10-05T17:03:38.981Z,72.29
2022-10-05T17:06:24.934Z,72.31
2022-10-05T17:09:10.112Z,72.43
2022-10-05T17:11:55.599Z,72.50
2022-10-05T17:14:35.139Z,72.53
2022-10-05T17:17:17.242Z,72.55
2022-10-05T17:19:46.658Z,72.85
2022-10-05T17:22:37.604Z,72.76
2022-10-05T17:25:14.410Z,72.83
2022-10-05T17:27:42.641Z,72.96
2022-10-05T17:30:27.622Z,73.05
2022-10-05T17:33:14.159Z,73.01
2022-10-05T17:35:49.109Z,73.01
2022-10-05T17:38:18.119Z,73.03
2022-10-05T17:40:59.795Z,73.03
2022-10-05T17:43:27.711Z,73.08
2022-10-05T17:45:54.351Z,73.07
2022-10-05T17:48:37.897Z,73.17
2022-10-05T17:51:33.998Z,73.18
2022-10-05T17:54:35.849Z,73.20
2022-10-05T17:57:02.941Z,73.47
2022-10-05T17:59:59.025Z,73.40
2022-10-05T18:02:36.339Z,73.38
2022-10-05T18:05:06.818Z,73.43
2022-10-05T18:07:34.821Z,73.48
2022-10-05T18:10:15.533Z,73.55
2022-10-05T18:12:45.401Z,73.56
2022-10-05T18:15:21.417Z,73.62
2022-10-05T18:17:59.678Z,73.64
2022-10-05T18:20:30.065Z,73.71
2022-10-05T18:23:02.768Z,73.73
2022-10-05T18:25:35.461Z,73.66
2022-10-05T18:28:03.959Z,73.72
2022-10-05T18:30:34.937Z,73.68
2022-10-05T18:33:14.558Z,73.66
2022-10-05T18:35:44.196Z,73.63
2022-10-05T18:38:14.091Z,73.59
2022-10-05T18:40:46.571Z,73.54
2022-10-05T18:43:19.960Z,73.55
2022-10-05T18:45:49.446Z,73.75
2022-10-05T18:48:16.249Z,73.69
2022-10-05T18:50:46.506Z,73.68
2022-10-05T18:53:13.041Z,73.73
2022-10-05T18:55:45.483Z,73.83
2022-10-05T18:58:17.192Z,73.77
2022-10-05T19:00:47.056Z,73.72
2022-10-05T19:03:23.006Z,73.77
2022-10-05T19:05:58.338Z,73.86
2022-10-05T19:08:39.469Z,73.85
2022-10-05T19:11:27.771Z,73.87
2022-10-05T19:13:59.867Z,73.95
2022-10-05T19:16:35.667Z,74.00
2022-10-05T19:19:04.308Z,73.95
2022-10-05T19:21:46.672Z,74.04
2022-10-05T19:24:19.163Z,74.01
2022-10-05T19:26:55.143Z,74.08
2022-10-05T19:29:40.534Z,74.01
2022-10-05T19:32:18.614Z,74.12
2022-10-05T19:34:46.139Z,74.01
2022-10-05T19:37:22.094Z,73.97
2022-10-05T19:39:48.802Z,74.04
2022-10-05T19:42:18.578Z,74.01
2022-10-05T19:44:52.304Z,74.03
2022-10-05T19:47:51.414Z,74.14
2022-10-05T19:50:18.340Z,74.03
2022-10-05T19:52:49.803Z,74.04
2022-10-05T19:55:26.197Z,74.03
2022-10-05T19:58:00.496Z,74.06
2022-10-05T20:00:31.329Z,74.05
2022-10-05T20:03:14.384Z,74.19
2022-10-05T20:05:41.079Z,74.08
2022-10-05T20:08:08.252Z,74.10
2022-10-05T20:10:34.910Z,74.19
2022-10-05T20:13:02.637Z,74.11
2022-10-05T20:15:49.019Z,74.13
2022-10-05T20:18:54.853Z,74.29
2022-10-05T20:21:39.986Z,74.28
2022-10-05T20:24:27.321Z,74.33
2022-10-05T20:27:06.435Z,74.27
2022-10-05T20:29:35.494Z,74.39
2022-10-05T20:32:08.205Z,74.35
2022-10-05T20:34:35.614Z,74.39
2022-10-05T20:37:02.937Z,74.33
2022-10-05T20:39:30.495Z,74.42
2022-10-05T20:41:57.510Z,74.36
2022-10-05T20:44:24.443Z,74.42
2022-10-05T20:46:51.134Z,74.35
2022-10-05T20:49:17.739Z,74.45
2022-10-05T20:51:44.649Z,74.45
2022-10-05T20:54:11.168Z,74.35
2022-10-05T20:56:37.718Z,74.37
2022-10-05T20:59:04.762Z,74.38
2022-10-05T21:01:32.014Z,74.41
2022-10-05T21:03:58.763Z,74.43
2022-10-05T21:06:28.660Z,74.41
2022-10-05T21:08:55.299Z,74.37
2022-10-05T21:11:21.859Z,74.40
2022-10-05T21:13:50.767Z,74.55
2022-10-05T21:16:19.095Z,74.58
2022-10-05T21:18:47.108Z,74.62
2022-10-05T21:21:17.019Z,74.56
2022-10-05T21:23:44.456Z,74.54
2022-10-05T21:26:12.717Z,74.50
2022-10-05T21:28:41.607Z,74.62
2022-10-05T21:31:08.573Z,74.67
2022-10-05T21:33:35.291Z,74.61
2022-10-05T21:36:02.223Z,74.68
2022-10-05T21:38:29.419Z,74.68
2022-10-05T21:40:56.389Z,74.71
2022-10-05T21:43:23.259Z,74.78
2022-10-05T21:45:49.852Z,74.79
2022-10-05T21:48:16.610Z,74.81
2022-10-05T21:50:44.252Z,74.72
2022-10-05T21:53:13.053Z,74.77
2022-10-05T21:55:41.418Z,74.70
2022-10-05T21:58:08.465Z,74.70
2022-10-05T22:00:35.067Z,74.79
2022-10-05T22:03:01.916Z,74.77
2022-10-05T22:05:28.646Z,74.79
2022-10-05T22:07:55.170Z,74.88
2022-10-05T22:10:21.959Z,74.90
2022-10-05T22:12:48.619Z,74.92
2022-10-05T22:15:15.449Z,74.91
2022-10-05T22:17:42.765Z,74.87
2022-10-05T22:20:13.057Z,74.91
2022-10-05T22:22:39.611Z,74.94
2022-10-05T22:25:06.535Z,75.05
2022-10-05T22:27:33.631Z,75.01
2022-10-05T22:30:00.178Z,75.10
2022-10-05T22:32:26.958Z,75.13
2022-10-05T22:34:53.713Z,75.11
2022-10-05T22:37:20.198Z,75.11
2022-10-05T22:39:47.102Z,75.13
2022-10-05T22:42:13.728Z,75.17
2022-10-05T22:44:40.354Z,75.18
2022-10-05T22:47:07.389Z,75.16
2022-10-05T22:49:33.944Z,75.17
2022-10-05T22:52:00.499Z,75.19
2022-10-05T22:54:30.025Z,75.20
2022-10-05T22:56:57.699Z,75.24
2022-10-05T22:59:24.267Z,75.27
2022-10-05T23:01:51.157Z,75.25
2022-10-05T23:04:17.735Z,75.28
2022-10-05T23:06:44.224Z,75.31
2022-10-05T23:09:11.107Z,75.32
2022-10-05T23:11:37.856Z,75.31
2022-10-05T23:14:04.418Z,75.33
2022-10-05T23:16:31.374Z,75.36
2022-10-05T23:18:59.111Z,75.39
2022-10-05T23:21:27.630Z,75.52
2022-10-05T23:23:54.719Z,75.49
2022-10-05T23:26:22.943Z,75.54
2022-10-05T23:28:50.158Z,75.59
2022-10-05T23:31:19.065Z,75.60
2022-10-05T23:33:45.967Z,75.61
2022-10-05T23:36:14.750Z,75.63
2022-10-05T23:38:42.603Z,75.65
2022-10-05T23:41:09.627Z,75.65
2022-10-05T23:43:36.801Z,75.67
2022-10-05T23:46:04.738Z,75.69
2022-10-05T23:48:31.955Z,75.74
2022-10-05T23:50:58.969Z,75.77
2022-10-05T23:53:26.255Z,75.80
2022-10-05T23:55:53.134Z,75.84
2022-10-05T23:58:20.147Z,75.87
